Terminal Aerodrome Forecast
Issued by NWS

Home | Current Version | Previous Version | Text Only | Print | Product List | Glossary On
Versions: 1 2 3 4 5 6 7 8 9 10 11 12 13 14 15 16 17 18 19 20 21 22
617
FTUS46 KSTO 100538
TAFSMF
TAF
KSMF 100538Z 1006/1106 16010KT P6SM OVC080
     FM100800 16012KT 6SM -RA OVC050
     FM101200 16022G30KT 6SM -RA BR OVC015
     FM102100 18012KT 2SM -RA BR OVC015=

USA.gov is the U.S. government's official web portal to all federal, state and local government web resources and services.